Terminal Aerodrome Forecast
Issued by NWS

Current Version | Previous Version | Graphics & Text | Print | Product List | Glossary On
Versions: 1 2 3 4 5 6 7 8 9 10 11 12 13 14 15 16 17 18 19 20 21 22 23 24 25 26 27 28 29 30 31 32 33 34 35 36 37
000
FTUS41 KRNK 011123
TAFLWB
TAF
KLWB 011123Z 0112/0212 00000KT 1/4SM FG OVC001
      TEMPO 0112/0113 3SM BR SCT002
     FM011330 00000KT P6SM SCT025
     FM011800 29005KT P6SM VCSH BKN040
     FM020700 00000KT 4SM BR SCT080
     FM021000 00000KT 1SM BR SCT001 BKN100=

USA.gov is the U.S. government's official web portal to all federal, state and local government web resources and services.